sensor_id;sensor_type;location;lat;lon;timestamp;temperature;humidity
46139;DHT22;32398;49.112;8.598;2023-04-06T00:01:33;7.00;56.60
46139;DHT22;32398;49.112;8.598;2023-04-06T00:04:01;7.00;56.70
46139;DHT22;32398;49.112;8.598;2023-04-06T00:06:28;6.90;56.70
46139;DHT22;32398;49.112;8.598;2023-04-06T00:08:55;6.90;56.90
46139;DHT22;32398;49.112;8.598;2023-04-06T00:11:21;6.90;57.00
46139;DHT22;32398;49.112;8.598;2023-04-06T00:13:48;6.80;57.10
46139;DHT22;32398;49.112;8.598;2023-04-06T00:16:14;6.80;57.20
46139;DHT22;32398;49.112;8.598;2023-04-06T00:18:41;6.80;57.30
46139;DHT22;32398;49.112;8.598;2023-04-06T00:21:10;6.70;57.90
46139;DHT22;32398;49.112;8.598;2023-04-06T00:23:38;6.70;57.50
46139;DHT22;32398;49.112;8.598;2023-04-06T00:26:04;6.70;57.70
46139;DHT22;32398;49.112;8.598;2023-04-06T00:28:31;6.60;57.70
46139;DHT22;32398;49.112;8.598;2023-04-06T00:30:57;6.60;57.80
46139;DHT22;32398;49.112;8.598;2023-04-06T00:33:24;6.60;58.00
46139;DHT22;32398;49.112;8.598;2023-04-06T00:35:51;6.60;58.00
46139;DHT22;32398;49.112;8.598;2023-04-06T00:38:18;6.50;58.00
46139;DHT22;32398;49.112;8.598;2023-04-06T00:40:46;6.50;58.10
46139;DHT22;32398;49.112;8.598;2023-04-06T00:43:12;6.50;58.10
46139;DHT22;32398;49.112;8.598;2023-04-06T00:45:40;6.50;58.20
46139;DHT22;32398;49.112;8.598;2023-04-06T00:48:07;6.50;58.30
46139;DHT22;32398;49.112;8.598;2023-04-06T00:50:34;6.40;58.40
46139;DHT22;32398;49.112;8.598;2023-04-06T00:53:00;6.40;58.50
46139;DHT22;32398;49.112;8.598;2023-04-06T00:55:29;6.40;58.50
46139;DHT22;32398;49.112;8.598;2023-04-06T00:57:56;6.30;58.50
46139;DHT22;32398;49.112;8.598;2023-04-06T01:00:24;6.30;58.60
46139;DHT22;32398;49.112;8.598;2023-04-06T01:02:50;6.30;58.70
46139;DHT22;32398;49.112;8.598;2023-04-06T01:05:17;6.30;58.70
46139;DHT22;32398;49.112;8.598;2023-04-06T01:07:43;6.30;58.80
46139;DHT22;32398;49.112;8.598;2023-04-06T01:10:10;6.30;58.90
46139;DHT22;32398;49.112;8.598;2023-04-06T01:12:38;6.30;58.90
46139;DHT22;32398;49.112;8.598;2023-04-06T01:15:05;6.20;58.90
46139;DHT22;32398;49.112;8.598;2023-04-06T01:17:32;6.20;59.00
46139;DHT22;32398;49.112;8.598;2023-04-06T01:19:59;6.20;59.00
46139;DHT22;32398;49.112;8.598;2023-04-06T01:22:27;6.10;59.00
46139;DHT22;32398;49.112;8.598;2023-04-06T01:24:53;6.10;59.10
46139;DHT22;32398;49.112;8.598;2023-04-06T01:27:20;6.10;59.20
46139;DHT22;32398;49.112;8.598;2023-04-06T01:29:46;6.10;59.30
46139;DHT22;32398;49.112;8.598;2023-04-06T01:32:13;6.10;59.30
46139;DHT22;32398;49.112;8.598;2023-04-06T01:34:39;6.00;59.30
46139;DHT22;32398;49.112;8.598;2023-04-06T01:37:06;6.00;59.40
46139;DHT22;32398;49.112;8.598;2023-04-06T01:39:34;6.00;59.50
46139;DHT22;32398;49.112;8.598;2023-04-06T01:42:01;6.00;59.60
46139;DHT22;32398;49.112;8.598;2023-04-06T01:44:27;6.00;59.70
46139;DHT22;32398;49.112;8.598;2023-04-06T01:46:55;5.90;59.70
46139;DHT22;32398;49.112;8.598;2023-04-06T01:49:22;5.90;59.70
46139;DHT22;32398;49.112;8.598;2023-04-06T01:51:48;5.90;59.80
46139;DHT22;32398;49.112;8.598;2023-04-06T01:54:15;5.90;59.80
46139;DHT22;32398;49.112;8.598;2023-04-06T01:56:42;5.90;59.90
46139;DHT22;32398;49.112;8.598;2023-04-06T01:59:09;5.80;59.90
46139;DHT22;32398;49.112;8.598;2023-04-06T02:01:35;5.80;59.90
46139;DHT22;32398;49.112;8.598;2023-04-06T02:04:02;5.80;60.00
46139;DHT22;32398;49.112;8.598;2023-04-06T02:06:29;5.70;59.90
46139;DHT22;32398;49.112;8.598;2023-04-06T02:08:55;5.70;60.00
46139;DHT22;32398;49.112;8.598;2023-04-06T02:11:22;5.70;60.10
46139;DHT22;32398;49.112;8.598;2023-04-06T02:13:50;5.70;60.30
46139;DHT22;32398;49.112;8.598;2023-04-06T02:16:16;5.70;60.40
46139;DHT22;32398;49.112;8.598;2023-04-06T02:18:43;5.70;60.50
46139;DHT22;32398;49.112;8.598;2023-04-06T02:21:10;5.60;60.50
46139;DHT22;32398;49.112;8.598;2023-04-06T02:23:36;5.60;60.60
46139;DHT22;32398;49.112;8.598;2023-04-06T02:26:03;5.60;60.70
46139;DHT22;32398;49.112;8.598;2023-04-06T02:28:30;5.60;60.80
46139;DHT22;32398;49.112;8.598;2023-04-06T02:30:58;5.50;61.60
46139;DHT22;32398;49.112;8.598;2023-04-06T02:33:25;5.50;60.90
46139;DHT22;32398;49.112;8.598;2023-04-06T02:35:51;5.50;61.00
46139;DHT22;32398;49.112;8.598;2023-04-06T02:38:18;5.50;61.10
46139;DHT22;32398;49.112;8.598;2023-04-06T02:40:44;5.50;61.20
46139;DHT22;32398;49.112;8.598;2023-04-06T02:43:11;5.40;61.10
46139;DHT22;32398;49.112;8.598;2023-04-06T02:45:37;5.40;61.20
46139;DHT22;32398;49.112;8.598;2023-04-06T02:48:05;5.40;61.30
46139;DHT22;32398;49.112;8.598;2023-04-06T02:50:32;5.40;61.40
46139;DHT22;32398;49.112;8.598;2023-04-06T02:52:59;5.40;61.40
46139;DHT22;32398;49.112;8.598;2023-04-06T02:55:25;5.30;61.40
46139;DHT22;32398;49.112;8.598;2023-04-06T02:57:52;5.30;61.60
46139;DHT22;32398;49.112;8.598;2023-04-06T03:00:18;5.30;61.70
46139;DHT22;32398;49.112;8.598;2023-04-06T03:02:46;5.20;61.70
46139;DHT22;32398;49.112;8.598;2023-04-06T03:05:13;5.20;61.80
46139;DHT22;32398;49.112;8.598;2023-04-06T03:07:40;5.10;61.80
46139;DHT22;32398;49.112;8.598;2023-04-06T03:10:07;5.10;61.90
46139;DHT22;32398;49.112;8.598;2023-04-06T03:12:34;5.00;62.00
46139;DHT22;32398;49.112;8.598;2023-04-06T03:15:01;5.00;62.10
46139;DHT22;32398;49.112;8.598;2023-04-06T03:17:27;5.00;62.20
46139;DHT22;32398;49.112;8.598;2023-04-06T03:19:54;5.00;62.30
46139;DHT22;32398;49.112;8.598;2023-04-06T03:22:22;4.90;62.40
46139;DHT22;32398;49.112;8.598;2023-04-06T03:24:49;4.80;62.40
46139;DHT22;32398;49.112;8.598;2023-04-06T03:27:15;4.90;62.50
46139;DHT22;32398;49.112;8.598;2023-04-06T03:29:42;4.80;62.50
46139;DHT22;32398;49.112;8.598;2023-04-06T03:32:08;4.80;62.60
46139;DHT22;32398;49.112;8.598;2023-04-06T03:34:35;4.80;62.60
46139;DHT22;32398;49.112;8.598;2023-04-06T03:37:02;4.80;62.80
46139;DHT22;32398;49.112;8.598;2023-04-06T03:39:29;4.70;62.70
46139;DHT22;32398;49.112;8.598;2023-04-06T03:41:57;4.70;62.80
46139;DHT22;32398;49.112;8.598;2023-04-06T03:44:23;4.70;62.90
46139;DHT22;32398;49.112;8.598;2023-04-06T03:46:50;4.70;62.90
46139;DHT22;32398;49.112;8.598;2023-04-06T03:49:16;4.70;63.00
46139;DHT22;32398;49.112;8.598;2023-04-06T03:51:43;4.70;63.10
46139;DHT22;32398;49.112;8.598;2023-04-06T03:54:09;4.60;63.20
46139;DHT22;32398;49.112;8.598;2023-04-06T03:56:37;4.60;63.10
46139;DHT22;32398;49.112;8.598;2023-04-06T03:59:04;4.60;63.20
46139;DHT22;32398;49.112;8.598;2023-04-06T04:01:30;4.60;63.30
46139;DHT22;32398;49.112;8.598;2023-04-06T04:03:57;4.60;63.40
46139;DHT22;32398;49.112;8.598;2023-04-06T04:06:23;4.50;63.30
46139;DHT22;32398;49.112;8.598;2023-04-06T04:08:50;4.50;63.40
46139;DHT22;32398;49.112;8.598;2023-04-06T04:11:17;4.50;63.50
46139;DHT22;32398;49.112;8.598;2023-04-06T04:13:45;4.50;63.50
46139;DHT22;32398;49.112;8.598;2023-04-06T04:16:11;4.50;63.50
46139;DHT22;32398;49.112;8.598;2023-04-06T04:18:38;4.40;63.60
46139;DHT22;32398;49.112;8.598;2023-04-06T04:21:04;4.40;63.70
46139;DHT22;32398;49.112;8.598;2023-04-06T04:23:31;4.40;63.70
46139;DHT22;32398;49.112;8.598;2023-04-06T04:25:57;4.40;63.80
46139;DHT22;32398;49.112;8.598;2023-04-06T04:28:24;4.40;64.70
46139;DHT22;32398;49.112;8.598;2023-04-06T04:30:52;4.30;63.90
46139;DHT22;32398;49.112;8.598;2023-04-06T04:33:18;4.30;64.00
46139;DHT22;32398;49.112;8.598;2023-04-06T04:35:45;4.30;64.10
46139;DHT22;32398;49.112;8.598;2023-04-06T04:38:11;4.20;64.20
46139;DHT22;32398;49.112;8.598;2023-04-06T04:40:38;4.20;64.30
46139;DHT22;32398;49.112;8.598;2023-04-06T04:43:04;4.20;64.30
46139;DHT22;32398;49.112;8.598;2023-04-06T04:45:31;4.20;64.40
46139;DHT22;32398;49.112;8.598;2023-04-06T04:47:59;4.20;64.40
46139;DHT22;32398;49.112;8.598;2023-04-06T04:50:25;4.10;64.40
46139;DHT22;32398;49.112;8.598;2023-04-06T04:52:52;4.20;64.60
46139;DHT22;32398;49.112;8.598;2023-04-06T04:55:18;4.10;64.60
46139;DHT22;32398;49.112;8.598;2023-04-06T04:57:45;4.10;64.70
46139;DHT22;32398;49.112;8.598;2023-04-06T05:00:12;4.00;64.80
46139;DHT22;32398;49.112;8.598;2023-04-06T05:02:38;4.00;64.90
46139;DHT22;32398;49.112;8.598;2023-04-06T05:05:07;4.00;64.90
46139;DHT22;32398;49.112;8.598;2023-04-06T05:07:34;4.00;65.00
46139;DHT22;32398;49.112;8.598;2023-04-06T05:10:00;4.00;65.00
46139;DHT22;32398;49.112;8.598;2023-04-06T05:12:27;4.00;65.00
46139;DHT22;32398;49.112;8.598;2023-04-06T05:14:54;3.90;65.00
46139;DHT22;32398;49.112;8.598;2023-04-06T05:17:20;3.90;65.10
46139;DHT22;32398;49.112;8.598;2023-04-06T05:19:47;3.90;65.20
46139;DHT22;32398;49.112;8.598;2023-04-06T05:22:15;3.90;65.30
46139;DHT22;32398;49.112;8.598;2023-04-06T05:24:42;3.80;65.30
46139;DHT22;32398;49.112;8.598;2023-04-06T05:27:09;3.80;65.40
46139;DHT22;32398;49.112;8.598;2023-04-06T05:29:35;3.80;65.50
46139;DHT22;32398;49.112;8.598;2023-04-06T05:32:02;3.80;65.50
46139;DHT22;32398;49.112;8.598;2023-04-06T05:34:29;3.80;65.60
46139;DHT22;32398;49.112;8.598;2023-04-06T05:36:55;3.80;65.70
46139;DHT22;32398;49.112;8.598;2023-04-06T05:39:23;3.80;65.70
46139;DHT22;32398;49.112;8.598;2023-04-06T05:41:50;3.80;65.70
46139;DHT22;32398;49.112;8.598;2023-04-06T05:44:17;3.80;65.70
46139;DHT22;32398;49.112;8.598;2023-04-06T05:46:44;3.80;65.70
46139;DHT22;32398;49.112;8.598;2023-04-06T05:49:10;3.80;65.70
46139;DHT22;32398;49.112;8.598;2023-04-06T05:51:37;3.80;65.70
46139;DHT22;32398;49.112;8.598;2023-04-06T05:54:04;3.80;66.50
46139;DHT22;32398;49.112;8.598;2023-04-06T05:56:32;3.80;65.90
46139;DHT22;32398;49.112;8.598;2023-04-06T05:58:58;3.70;66.00
46139;DHT22;32398;49.112;8.598;2023-04-06T06:01:25;3.70;66.00
46139;DHT22;32398;49.112;8.598;2023-04-06T06:03:51;3.70;66.00
46139;DHT22;32398;49.112;8.598;2023-04-06T06:06:18;3.70;66.10
46139;DHT22;32398;49.112;8.598;2023-04-06T06:08:45;3.70;66.20
46139;DHT22;32398;49.112;8.598;2023-04-06T06:11:11;3.70;66.20
46139;DHT22;32398;49.112;8.598;2023-04-06T06:13:39;3.70;66.30
46139;DHT22;32398;49.112;8.598;2023-04-06T06:16:06;3.70;66.30
46139;DHT22;32398;49.112;8.598;2023-04-06T06:18:32;3.60;66.30
46139;DHT22;32398;49.112;8.598;2023-04-06T06:20:59;3.70;66.50
46139;DHT22;32398;49.112;8.598;2023-04-06T06:23:25;3.60;66.40
46139;DHT22;32398;49.112;8.598;2023-04-06T06:25:52;3.60;66.50
46139;DHT22;32398;49.112;8.598;2023-04-06T06:28:18;3.60;66.60
46139;DHT22;32398;49.112;8.598;2023-04-06T06:30:46;3.60;66.60
46139;DHT22;32398;49.112;8.598;2023-04-06T06:33:13;3.60;66.70
46139;DHT22;32398;49.112;8.598;2023-04-06T06:35:39;3.60;66.80
46139;DHT22;32398;49.112;8.598;2023-04-06T06:38:06;3.60;66.80
46139;DHT22;32398;49.112;8.598;2023-04-06T06:40:32;3.60;66.90
46139;DHT22;32398;49.112;8.598;2023-04-06T06:42:59;3.60;67.00
46139;DHT22;32398;49.112;8.598;2023-04-06T06:45:26;3.70;67.00
46139;DHT22;32398;49.112;8.598;2023-04-06T06:47:55;3.60;67.10
46139;DHT22;32398;49.112;8.598;2023-04-06T06:50:22;3.70;67.20
46139;DHT22;32398;49.112;8.598;2023-04-06T06:52:49;3.60;67.30
46139;DHT22;32398;49.112;8.598;2023-04-06T06:55:15;3.70;67.40
46139;DHT22;32398;49.112;8.598;2023-04-06T06:57:44;3.70;67.40
46139;DHT22;32398;49.112;8.598;2023-04-06T07:00:11;3.60;67.40
46139;DHT22;32398;49.112;8.598;2023-04-06T07:02:38;3.60;67.50
46139;DHT22;32398;49.112;8.598;2023-04-06T07:05:07;3.60;67.60
46139;DHT22;32398;49.112;8.598;2023-04-06T07:07:33;3.70;67.70
46139;DHT22;32398;49.112;8.598;2023-04-06T07:10:00;3.70;67.70
46139;DHT22;32398;49.112;8.598;2023-04-06T07:12:26;3.70;67.80
46139;DHT22;32398;49.112;8.598;2023-04-06T07:14:53;3.70;67.70
46139;DHT22;32398;49.112;8.598;2023-04-06T07:17:19;3.70;67.70
46139;DHT22;32398;49.112;8.598;2023-04-06T07:19:46;3.70;67.70
46139;DHT22;32398;49.112;8.598;2023-04-06T07:22:14;3.70;67.70
46139;DHT22;32398;49.112;8.598;2023-04-06T07:24:40;3.70;67.70
46139;DHT22;32398;49.112;8.598;2023-04-06T07:27:07;3.70;67.70
46139;DHT22;32398;49.112;8.598;2023-04-06T07:29:33;3.80;67.70
46139;DHT22;32398;49.112;8.598;2023-04-06T07:32:00;3.70;67.60
46139;DHT22;32398;49.112;8.598;2023-04-06T07:34:27;3.70;67.70
46139;DHT22;32398;49.112;8.598;2023-04-06T07:36:53;3.80;67.70
46139;DHT22;32398;49.112;8.598;2023-04-06T07:39:21;3.80;67.70
46139;DHT22;32398;49.112;8.598;2023-04-06T07:41:47;3.80;67.70
46139;DHT22;32398;49.112;8.598;2023-04-06T07:44:14;3.80;67.80
46139;DHT22;32398;49.112;8.598;2023-04-06T07:46:41;3.90;67.90
46139;DHT22;32398;49.112;8.598;2023-04-06T07:49:07;3.90;67.90
46139;DHT22;32398;49.112;8.598;2023-04-06T07:51:35;3.90;68.00
46139;DHT22;32398;49.112;8.598;2023-04-06T07:54:01;3.90;67.90
46139;DHT22;32398;49.112;8.598;2023-04-06T07:56:29;3.90;68.00
46139;DHT22;32398;49.112;8.598;2023-04-06T07:58:56;3.90;68.00
46139;DHT22;32398;49.112;8.598;2023-04-06T08:01:23;4.00;68.00
46139;DHT22;32398;49.112;8.598;2023-04-06T08:03:50;4.00;68.10
46139;DHT22;32398;49.112;8.598;2023-04-06T08:06:16;4.00;68.30
46139;DHT22;32398;49.112;8.598;2023-04-06T08:08:43;4.00;68.30
46139;DHT22;32398;49.112;8.598;2023-04-06T08:11:09;4.10;68.60
46139;DHT22;32398;49.112;8.598;2023-04-06T08:13:37;4.10;68.70
46139;DHT22;32398;49.112;8.598;2023-04-06T08:16:04;4.10;68.80
46139;DHT22;32398;49.112;8.598;2023-04-06T08:18:31;4.10;68.90
46139;DHT22;32398;49.112;8.598;2023-04-06T08:20:57;4.20;69.10
46139;DHT22;32398;49.112;8.598;2023-04-06T08:23:24;4.20;69.80
46139;DHT22;32398;49.112;8.598;2023-04-06T08:25:50;4.20;69.20
46139;DHT22;32398;49.112;8.598;2023-04-06T08:28:19;4.20;69.50
46139;DHT22;32398;49.112;8.598;2023-04-06T08:30:47;4.30;69.70
46139;DHT22;32398;49.112;8.598;2023-04-06T08:33:14;4.40;69.90
46139;DHT22;32398;49.112;8.598;2023-04-06T08:35:40;4.40;69.80
46139;DHT22;32398;49.112;8.598;2023-04-06T08:38:07;4.40;69.50
46139;DHT22;32398;49.112;8.598;2023-04-06T08:40:35;4.50;69.40
46139;DHT22;32398;49.112;8.598;2023-04-06T08:43:02;4.50;69.30
46139;DHT22;32398;49.112;8.598;2023-04-06T08:45:33;4.60;69.10
46139;DHT22;32398;49.112;8.598;2023-04-06T08:48:01;4.70;68.90
46139;DHT22;32398;49.112;8.598;2023-04-06T08:50:29;4.70;68.80
46139;DHT22;32398;49.112;8.598;2023-04-06T08:52:55;4.80;68.70
46139;DHT22;32398;49.112;8.598;2023-04-06T08:55:23;4.80;68.50
46139;DHT22;32398;49.112;8.598;2023-04-06T08:57:50;4.90;68.40
46139;DHT22;32398;49.112;8.598;2023-04-06T09:00:18;5.00;68.20
46139;DHT22;32398;49.112;8.598;2023-04-06T09:02:45;5.10;68.00
46139;DHT22;32398;49.112;8.598;2023-04-06T09:05:14;5.10;67.70
46139;DHT22;32398;49.112;8.598;2023-04-06T09:07:41;5.20;67.50
46139;DHT22;32398;49.112;8.598;2023-04-06T09:10:08;5.30;67.20
46139;DHT22;32398;49.112;8.598;2023-04-06T09:12:34;5.30;67.00
46139;DHT22;32398;49.112;8.598;2023-04-06T09:15:01;5.40;66.70
46139;DHT22;32398;49.112;8.598;2023-04-06T09:17:28;5.50;66.40
46139;DHT22;32398;49.112;8.598;2023-04-06T09:19:55;5.60;66.30
46139;DHT22;32398;49.112;8.598;2023-04-06T09:22:23;5.70;66.10
46139;DHT22;32398;49.112;8.598;2023-04-06T09:24:52;5.80;65.70
46139;DHT22;32398;49.112;8.598;2023-04-06T09:27:29;5.80;65.60
46139;DHT22;32398;49.112;8.598;2023-04-06T09:30:01;5.90;65.50
46139;DHT22;32398;49.112;8.598;2023-04-06T09:32:28;5.90;65.40
46139;DHT22;32398;49.112;8.598;2023-04-06T09:35:04;6.00;65.30
46139;DHT22;32398;49.112;8.598;2023-04-06T09:37:32;6.10;65.10
46139;DHT22;32398;49.112;8.598;2023-04-06T09:40:02;6.20;64.90
46139;DHT22;32398;49.112;8.598;2023-04-06T09:42:28;6.30;64.50
46139;DHT22;32398;49.112;8.598;2023-04-06T09:44:55;6.30;64.40
46139;DHT22;32398;49.112;8.598;2023-04-06T09:47:22;6.40;64.40
46139;DHT22;32398;49.112;8.598;2023-04-06T09:49:50;6.50;64.40
46139;DHT22;32398;49.112;8.598;2023-04-06T09:52:16;6.50;64.20
46139;DHT22;32398;49.112;8.598;2023-04-06T09:54:45;6.60;63.70
46139;DHT22;32398;49.112;8.598;2023-04-06T09:57:17;6.70;63.70
46139;DHT22;32398;49.112;8.598;2023-04-06T09:59:47;6.70;63.70
46139;DHT22;32398;49.112;8.598;2023-04-06T10:02:18;6.80;63.30
46139;DHT22;32398;49.112;8.598;2023-04-06T10:04:48;7.00;62.90
46139;DHT22;32398;49.112;8.598;2023-04-06T10:07:16;7.00;62.60
46139;DHT22;32398;49.112;8.598;2023-04-06T10:09:43;7.10;62.20
46139;DHT22;32398;49.112;8.598;2023-04-06T10:12:12;7.10;61.80
46139;DHT22;32398;49.112;8.598;2023-04-06T10:14:39;7.20;61.60
46139;DHT22;32398;49.112;8.598;2023-04-06T10:17:06;7.30;61.20
46139;DHT22;32398;49.112;8.598;2023-04-06T10:19:34;7.30;61.20
46139;DHT22;32398;49.112;8.598;2023-04-06T10:22:04;7.40;61.20
46139;DHT22;32398;49.112;8.598;2023-04-06T10:24:32;7.50;61.20
46139;DHT22;32398;49.112;8.598;2023-04-06T10:27:00;7.60;61.10
46139;DHT22;32398;49.112;8.598;2023-04-06T10:29:31;7.70;61.00
46139;DHT22;32398;49.112;8.598;2023-04-06T10:32:06;7.70;60.60
46139;DHT22;32398;49.112;8.598;2023-04-06T10:34:34;7.80;60.30
46139;DHT22;32398;49.112;8.598;2023-04-06T10:37:09;7.80;60.10
46139;DHT22;32398;49.112;8.598;2023-04-06T10:39:39;7.90;60.20
46139;DHT22;32398;49.112;8.598;2023-04-06T10:42:11;8.00;60.10
46139;DHT22;32398;49.112;8.598;2023-04-06T10:44:43;8.10;59.90
46139;DHT22;32398;49.112;8.598;2023-04-06T10:47:15;8.20;59.70
46139;DHT22;32398;49.112;8.598;2023-04-06T10:49:42;8.20;59.40
46139;DHT22;32398;49.112;8.598;2023-04-06T10:52:09;8.30;58.90
46139;DHT22;32398;49.112;8.598;2023-04-06T10:54:38;8.40;58.10
46139;DHT22;32398;49.112;8.598;2023-04-06T10:57:07;8.50;58.00
46139;DHT22;32398;49.112;8.598;2023-04-06T10:59:33;8.50;57.50
46139;DHT22;32398;49.112;8.598;2023-04-06T11:02:01;8.60;57.40
46139;DHT22;32398;49.112;8.598;2023-04-06T11:04:28;8.60;57.30
46139;DHT22;32398;49.112;8.598;2023-04-06T11:06:55;8.70;57.20
46139;DHT22;32398;49.112;8.598;2023-04-06T11:09:23;8.80;57.00
46139;DHT22;32398;49.112;8.598;2023-04-06T11:11:51;8.90;57.10
46139;DHT22;32398;49.112;8.598;2023-04-06T11:14:17;8.90;56.70
46139;DHT22;32398;49.112;8.598;2023-04-06T11:16:46;9.00;56.30
46139;DHT22;32398;49.112;8.598;2023-04-06T11:19:14;9.00;56.00
46139;DHT22;32398;49.112;8.598;2023-04-06T11:21:41;9.10;56.30
46139;DHT22;32398;49.112;8.598;2023-04-06T11:24:09;9.10;56.10
46139;DHT22;32398;49.112;8.598;2023-04-06T11:26:39;9.20;56.00
46139;DHT22;32398;49.112;8.598;2023-04-06T11:29:06;9.30;55.80
46139;DHT22;32398;49.112;8.598;2023-04-06T11:31:38;9.40;55.90
46139;DHT22;32398;49.112;8.598;2023-04-06T11:34:08;9.40;55.90
46139;DHT22;32398;49.112;8.598;2023-04-06T11:36:36;9.50;55.70
46139;DHT22;32398;49.112;8.598;2023-04-06T11:39:06;9.50;55.40
46139;DHT22;32398;49.112;8.598;2023-04-06T11:41:33;9.60;55.40
46139;DHT22;32398;49.112;8.598;2023-04-06T11:44:00;9.70;54.50
46139;DHT22;32398;49.112;8.598;2023-04-06T11:46:27;9.80;54.30
46139;DHT22;32398;49.112;8.598;2023-04-06T11:48:53;9.90;54.00
46139;DHT22;32398;49.112;8.598;2023-04-06T11:51:23;9.90;53.80
46139;DHT22;32398;49.112;8.598;2023-04-06T11:53:53;10.00;53.90
46139;DHT22;32398;49.112;8.598;2023-04-06T11:56:23;10.00;53.80
46139;DHT22;32398;49.112;8.598;2023-04-06T11:58:50;10.10;53.80
46139;DHT22;32398;49.112;8.598;2023-04-06T12:01:16;10.20;53.80
46139;DHT22;32398;49.112;8.598;2023-04-06T12:03:43;10.20;53.20
46139;DHT22;32398;49.112;8.598;2023-04-06T12:06:10;10.30;52.80
46139;DHT22;32398;49.112;8.598;2023-04-06T12:08:37;10.40;53.10
46139;DHT22;32398;49.112;8.598;2023-04-06T12:11:05;10.30;52.90
46139;DHT22;32398;49.112;8.598;2023-04-06T12:13:31;10.40;53.10
46139;DHT22;32398;49.112;8.598;2023-04-06T12:15:58;10.40;53.20
46139;DHT22;32398;49.112;8.598;2023-04-06T12:18:25;10.50;53.40
46139;DHT22;32398;49.112;8.598;2023-04-06T12:20:51;10.50;53.10
46139;DHT22;32398;49.112;8.598;2023-04-06T12:23:18;10.50;52.70
46139;DHT22;32398;49.112;8.598;2023-04-06T12:25:45;10.60;52.90
46139;DHT22;32398;49.112;8.598;2023-04-06T12:28:13;10.60;53.00
46139;DHT22;32398;49.112;8.598;2023-04-06T12:30:39;10.70;51.80
46139;DHT22;32398;49.112;8.598;2023-04-06T12:33:06;10.70;52.10
46139;DHT22;32398;49.112;8.598;2023-04-06T12:35:33;10.80;52.20
46139;DHT22;32398;49.112;8.598;2023-04-06T12:38:00;10.80;52.40
46139;DHT22;32398;49.112;8.598;2023-04-06T12:40:27;10.80;52.70
46139;DHT22;32398;49.112;8.598;2023-04-06T12:42:53;10.90;52.30
46139;DHT22;32398;49.112;8.598;2023-04-06T12:45:21;10.90;53.00
46139;DHT22;32398;49.112;8.598;2023-04-06T12:47:48;11.00;52.40
46139;DHT22;32398;49.112;8.598;2023-04-06T12:50:14;11.10;51.90
46139;DHT22;32398;49.112;8.598;2023-04-06T12:52:41;11.20;50.60
46139;DHT22;32398;49.112;8.598;2023-04-06T12:55:08;11.20;51.10
46139;DHT22;32398;49.112;8.598;2023-04-06T12:57:34;11.20;50.80
46139;DHT22;32398;49.112;8.598;2023-04-06T13:00:02;11.30;50.90
46139;DHT22;32398;49.112;8.598;2023-04-06T13:02:31;11.40;51.20
46139;DHT22;32398;49.112;8.598;2023-04-06T13:04:57;11.40;50.70
46139;DHT22;32398;49.112;8.598;2023-04-06T13:07:24;11.50;50.60
46139;DHT22;32398;49.112;8.598;2023-04-06T13:09:50;11.50;48.80
46139;DHT22;32398;49.112;8.598;2023-04-06T13:12:17;11.60;49.50
46139;DHT22;32398;49.112;8.598;2023-04-06T13:14:44;11.60;49.70
46139;DHT22;32398;49.112;8.598;2023-04-06T13:17:12;11.70;49.90
46139;DHT22;32398;49.112;8.598;2023-04-06T13:19:40;11.70;49.20
46139;DHT22;32398;49.112;8.598;2023-04-06T13:22:07;11.70;49.00
46139;DHT22;32398;49.112;8.598;2023-04-06T13:24:33;11.80;49.30
46139;DHT22;32398;49.112;8.598;2023-04-06T13:27:00;11.90;48.50
46139;DHT22;32398;49.112;8.598;2023-04-06T13:29:27;11.90;49.00
46139;DHT22;32398;49.112;8.598;2023-04-06T13:31:54;11.90;49.30
46139;DHT22;32398;49.112;8.598;2023-04-06T13:34:20;12.00;49.30
46139;DHT22;32398;49.112;8.598;2023-04-06T13:36:48;12.00;49.00
46139;DHT22;32398;49.112;8.598;2023-04-06T13:39:15;12.00;48.90
46139;DHT22;32398;49.112;8.598;2023-04-06T13:41:41;12.00;48.10
46139;DHT22;32398;49.112;8.598;2023-04-06T13:44:08;12.00;48.10
46139;DHT22;32398;49.112;8.598;2023-04-06T13:46:34;12.10;48.70
46139;DHT22;32398;49.112;8.598;2023-04-06T13:49:01;12.10;47.90
46139;DHT22;32398;49.112;8.598;2023-04-06T13:51:27;12.10;48.10
46139;DHT22;32398;49.112;8.598;2023-04-06T13:53:55;12.10;48.20
46139;DHT22;32398;49.112;8.598;2023-04-06T13:56:22;12.10;47.90
46139;DHT22;32398;49.112;8.598;2023-04-06T13:58:48;12.10;48.20
46139;DHT22;32398;49.112;8.598;2023-04-06T14:01:15;12.10;48.40
46139;DHT22;32398;49.112;8.598;2023-04-06T14:03:41;12.10;48.60
46139;DHT22;32398;49.112;8.598;2023-04-06T14:06:10;12.10;48.50
46139;DHT22;32398;49.112;8.598;2023-04-06T14:08:37;12.10;48.70
46139;DHT22;32398;49.112;8.598;2023-04-06T14:11:06;12.10;47.60
46139;DHT22;32398;49.112;8.598;2023-04-06T14:13:33;12.10;48.20
46139;DHT22;32398;49.112;8.598;2023-04-06T14:16:00;12.10;48.40
46139;DHT22;32398;49.112;8.598;2023-04-06T14:18:26;12.10;48.50
46139;DHT22;32398;49.112;8.598;2023-04-06T14:20:56;12.10;49.00
46139;DHT22;32398;49.112;8.598;2023-04-06T14:23:23;12.10;49.20
46139;DHT22;32398;49.112;8.598;2023-04-06T14:25:51;12.10;49.40
46139;DHT22;32398;49.112;8.598;2023-04-06T14:28:20;12.10;49.40
46139;DHT22;32398;49.112;8.598;2023-04-06T14:30:47;12.20;48.80
46139;DHT22;32398;49.112;8.598;2023-04-06T14:33:13;12.10;48.10
46139;DHT22;32398;49.112;8.598;2023-04-06T14:35:40;12.10;48.10
46139;DHT22;32398;49.112;8.598;2023-04-06T14:38:07;12.50;48.40
46139;DHT22;32398;49.112;8.598;2023-04-06T14:40:34;12.20;48.10
46139;DHT22;32398;49.112;8.598;2023-04-06T14:43:01;12.20;48.00
46139;DHT22;32398;49.112;8.598;2023-04-06T14:45:29;12.20;48.30
46139;DHT22;32398;49.112;8.598;2023-04-06T14:47:55;12.20;46.60
46139;DHT22;32398;49.112;8.598;2023-04-06T14:50:23;12.20;46.40
46139;DHT22;32398;49.112;8.598;2023-04-06T14:52:49;12.20;46.50
46139;DHT22;32398;49.112;8.598;2023-04-06T14:55:16;12.20;46.80
46139;DHT22;32398;49.112;8.598;2023-04-06T14:57:43;12.20;46.80
46139;DHT22;32398;49.112;8.598;2023-04-06T15:00:10;12.30;47.20
46139;DHT22;32398;49.112;8.598;2023-04-06T15:02:38;12.30;46.60
46139;DHT22;32398;49.112;8.598;2023-04-06T15:05:05;12.30;46.90
46139;DHT22;32398;49.112;8.598;2023-04-06T15:07:32;12.30;44.90
46139;DHT22;32398;49.112;8.598;2023-04-06T15:09:58;12.30;45.40
46139;DHT22;32398;49.112;8.598;2023-04-06T15:12:25;12.30;46.20
46139;DHT22;32398;49.112;8.598;2023-04-06T15:14:51;12.40;46.40
46139;DHT22;32398;49.112;8.598;2023-04-06T15:17:18;12.40;46.60
46139;DHT22;32398;49.112;8.598;2023-04-06T15:19:46;12.80;46.60
46139;DHT22;32398;49.112;8.598;2023-04-06T15:22:12;12.40;46.10
46139;DHT22;32398;49.112;8.598;2023-04-06T15:24:39;12.40;46.40
46139;DHT22;32398;49.112;8.598;2023-04-06T15:27:05;12.50;46.40
46139;DHT22;32398;49.112;8.598;2023-04-06T15:29:32;12.40;46.00
46139;DHT22;32398;49.112;8.598;2023-04-06T15:31:58;12.40;46.30
46139;DHT22;32398;49.112;8.598;2023-04-06T15:34:25;12.40;46.20
46139;DHT22;32398;49.112;8.598;2023-04-06T15:36:56;12.40;46.50
46139;DHT22;32398;49.112;8.598;2023-04-06T15:39:26;12.50;46.70
46139;DHT22;32398;49.112;8.598;2023-04-06T15:41:53;12.40;46.70